Terminal Aerodrome Forecast
Issued by NWS

Home | Current Version | Previous Version | Graphics & Text | Print | Product List | Glossary On
Versions: 1 2 3 4 5 6 7 8 9 10 11 12 13 14 15 16 17 18 19 20 21 22 23 24
000
FTUS45 KGGW 271732
TAFGDV
TAF
KGDV 271732Z 2718/2818 14006KT P6SM VCSH BKN090
     FM280200 09007KT P6SM BKN070
     FM280800 05007KT P6SM BKN050
     FM281000 04004KT 4SM BR SCT001 BKN013
     FM281500 04005KT P6SM VCSH BKN023=

USA.gov is the U.S. government's official web portal to all federal, state and local government web resources and services.